Time;durP1;ratioP1;P1;durP2;ratioP2;P2;SDS_P1;SDS_P2;PMS_P1;PMS_P2;Temp;Humidity;BMP_temperature;BMP_pressure;BME280_temperature;BME280_humidity;BME280_pressure;Samples;Min_cycle;Max_cycle;Signal;HPM_P1;HPM_P2
2022/05/12 00:00:43;;;;;;;2.25;1.30;;;;;;;;;;4983324;28;20046;-80
2022/05/12 00:03:08;;;;;;;1.58;0.82;;;;;;;;;;4986315;28;20041;-80
2022/05/12 00:05:34;;;;;;;2.13;1.10;;;;;;;;;;4969599;28;21466;-81
2022/05/12 00:07:59;;;;;;;1.27;0.70;;;;;;;;;;4986132;28;20397;-81
2022/05/12 00:10:26;;;;;;;1.13;0.60;;;;;;;;;;4971184;28;20119;-80
2022/05/12 00:12:52;;;;;;;2.00;1.20;;;;;;;;;;4985697;28;20041;-80
2022/05/12 00:15:24;;;;;;;1.40;0.80;;;;;;;;;;4968694;28;20517;-80
2022/05/12 00:17:50;;;;;;;1.58;0.93;;;;;;;;;;4963078;28;20091;-79
2022/05/12 00:20:19;;;;;;;2.25;1.35;;;;;;;;;;4985591;28;20121;-79
2022/05/12 00:22:45;;;;;;;1.73;0.73;;;;;;;;;;4985206;28;20034;-79
2022/05/12 00:25:15;;;;;;;1.90;0.95;;;;;;;;;;4999300;28;20520;-79
2022/05/12 00:27:41;;;;;;;2.53;1.25;;;;;;;;;;4979033;28;20124;-79
2022/05/12 00:30:09;;;;;;;2.03;1.00;;;;;;;;;;4969492;28;20501;-79
2022/05/12 00:32:39;;;;;;;0.88;0.60;;;;;;;;;;4969781;28;20042;-79
2022/05/12 00:35:06;;;;;;;2.25;1.20;;;;;;;;;;5002218;28;20034;-79
2022/05/12 00:37:32;;;;;;;4.45;1.30;;;;;;;;;;4985643;28;20040;-79
2022/05/12 00:39:57;;;;;;;4.88;3.13;;;;;;;;;;4986002;28;20440;-80
2022/05/12 00:42:22;;;;;;;5.40;3.03;;;;;;;;;;4981273;28;20037;-79
2022/05/12 00:44:48;;;;;;;4.80;3.13;;;;;;;;;;4971168;28;20057;-79
2022/05/12 00:47:13;;;;;;;5.18;2.88;;;;;;;;;;4969443;28;20048;-79
2022/05/12 00:49:40;;;;;;;5.10;3.00;;;;;;;;;;4974423;28;20073;-78
2022/05/12 00:52:11;;;;;;;5.28;3.40;;;;;;;;;;4982529;28;20041;-80
2022/05/12 00:54:46;;;;;;;4.78;3.03;;;;;;;;;;4978833;28;20493;-79
2022/05/12 00:57:15;;;;;;;5.47;3.03;;;;;;;;;;4984925;28;20033;-78
2022/05/12 00:59:41;;;;;;;5.07;2.95;;;;;;;;;;4989949;28;20044;-79
2022/05/12 01:02:12;;;;;;;5.35;3.45;;;;;;;;;;4989441;28;20030;-79
2022/05/12 01:04:39;;;;;;;14.20;6.60;;;;;;;;;;4990393;28;20657;-80
2022/05/12 01:07:04;;;;;;;10.00;6.38;;;;;;;;;;4973460;28;20053;-80
2022/05/12 01:09:30;;;;;;;7.85;6.93;;;;;;;;;;4966435;28;20034;-80
2022/05/12 01:11:56;;;;;;;10.90;7.45;;;;;;;;;;4987366;28;20351;-80
2022/05/12 01:14:21;;;;;;;10.15;7.72;;;;;;;;;;4974755;28;20046;-80
2022/05/12 01:17:15;;;;;;;8.35;7.10;;;;;;;;;;4989083;28;20073;-81
2022/05/12 01:19:41;;;;;;;12.95;6.90;;;;;;;;;;4970065;28;20045;-80
2022/05/12 01:22:10;;;;;;;8.85;5.80;;;;;;;;;;4978755;28;20397;-80
2022/05/12 01:24:42;;;;;;;9.48;5.80;;;;;;;;;;4965549;28;20068;-80
2022/05/12 01:27:20;;;;;;;5.97;4.28;;;;;;;;;;4972880;28;20077;-80
2022/05/12 01:29:55;;;;;;;7.32;3.55;;;;;;;;;;4991433;28;20034;-79
2022/05/12 01:32:22;;;;;;;11.20;3.97;;;;;;;;;;4988552;28;20509;-79
2022/05/12 01:34:48;;;;;;;6.78;3.70;;;;;;;;;;5005774;28;20038;-79
2022/05/12 01:37:13;;;;;;;5.30;2.70;;;;;;;;;;4988106;28;20395;-80
2022/05/12 01:39:39;;;;;;;5.25;2.63;;;;;;;;;;4986993;28;20042;-81
2022/05/12 01:42:07;;;;;;;3.10;1.67;;;;;;;;;;4973710;28;20065;-80
2022/05/12 01:44:33;;;;;;;2.55;1.38;;;;;;;;;;4973665;28;20383;-80
2022/05/12 01:46:59;;;;;;;2.60;1.70;;;;;;;;;;4971912;28;20034;-80
2022/05/12 01:49:25;;;;;;;2.72;1.48;;;;;;;;;;4989075;28;20379;-79
2022/05/12 01:51:54;;;;;;;2.75;1.20;;;;;;;;;;4972693;28;20138;-79
2022/05/12 01:54:26;;;;;;;2.33;1.30;;;;;;;;;;4972976;28;20125;-80
2022/05/12 01:56:52;;;;;;;1.92;0.90;;;;;;;;;;4976519;28;20034;-80
2022/05/12 01:59:18;;;;;;;3.08;1.40;;;;;;;;;;4989711;28;20100;-80
2022/05/12 02:01:44;;;;;;;1.67;0.82;;;;;;;;;;4972242;28;20029;-80
2022/05/12 02:04:10;;;;;;;2.13;1.20;;;;;;;;;;4968649;28;20054;-80
2022/05/12 02:06:35;;;;;;;1.90;1.08;;;;;;;;;;4968259;28;20479;-80
2022/05/12 02:09:00;;;;;;;1.88;0.82;;;;;;;;;;4968454;28;20062;-79
2022/05/12 02:11:26;;;;;;;2.58;1.20;;;;;;;;;;4983644;28;20401;-79
2022/05/12 02:13:52;;;;;;;1.10;0.65;;;;;;;;;;4972935;28;20035;-80
2022/05/12 02:16:17;;;;;;;1.85;0.75;;;;;;;;;;4969297;28;20422;-79
2022/05/12 02:18:43;;;;;;;1.60;0.90;;;;;;;;;;4984782;28;20077;-79
2022/05/12 02:21:09;;;;;;;1.85;0.77;;;;;;;;;;4968463;28;20031;-80
2022/05/12 02:23:35;;;;;;;3.40;0.88;;;;;;;;;;4968177;28;20034;-81
2022/05/12 02:26:00;;;;;;;1.33;0.73;;;;;;;;;;4964477;28;20042;-79
2022/05/12 02:28:25;;;;;;;0.98;0.50;;;;;;;;;;4968499;28;20047;-79
2022/05/12 02:30:51;;;;;;;2.08;0.80;;;;;;;;;;4968304;28;20089;-80
2022/05/12 02:33:16;;;;;;;4.80;0.65;;;;;;;;;;4973638;28;20054;-81
2022/05/12 02:35:42;;;;;;;1.45;0.73;;;;;;;;;;4973559;28;20499;-79
2022/05/12 02:38:08;;;;;;;1.60;0.85;;;;;;;;;;4968250;28;20053;-83
2022/05/12 02:40:33;;;;;;;1.13;0.52;;;;;;;;;;4966081;28;20510;-80
2022/05/12 02:42:59;;;;;;;1.90;0.63;;;;;;;;;;4984139;28;20042;-79
2022/05/12 02:45:27;;;;;;;1.77;1.23;;;;;;;;;;5001021;28;20080;-80
2022/05/12 02:47:55;;;;;;;9.25;1.30;;;;;;;;;;4985217;28;20100;-83
2022/05/12 02:50:21;;;;;;;1.05;0.50;;;;;;;;;;4968972;28;20033;-80
2022/05/12 02:52:47;;;;;;;2.05;1.00;;;;;;;;;;4969009;28;20038;-79
2022/05/12 02:55:13;;;;;;;6.22;1.27;;;;;;;;;;4968798;28;20065;-80
2022/05/12 02:57:39;;;;;;;4.97;0.88;;;;;;;;;;4984954;28;20034;-84
2022/05/12 03:00:06;;;;;;;1.48;0.57;;;;;;;;;;4968396;28;20052;-79
2022/05/12 03:02:31;;;;;;;0.85;0.50;;;;;;;;;;4967875;28;20437;-81
2022/05/12 03:04:57;;;;;;;1.13;0.70;;;;;;;;;;4968340;28;20049;-80
2022/05/12 03:07:22;;;;;;;0.80;0.55;;;;;;;;;;4972396;28;20046;-79
2022/05/12 03:09:47;;;;;;;1.35;0.65;;;;;;;;;;4982209;28;20051;-79
2022/05/12 03:12:13;;;;;;;1.05;0.55;;;;;;;;;;4977075;28;20648;-81
2022/05/12 03:14:38;;;;;;;0.55;0.35;;;;;;;;;;4984511;28;20043;-80
2022/05/12 03:17:03;;;;;;;1.63;0.70;;;;;;;;;;4967538;28;20042;-79
2022/05/12 03:19:29;;;;;;;1.83;0.95;;;;;;;;;;4984354;28;20702;-79
2022/05/12 03:21:54;;;;;;;1.58;0.70;;;;;;;;;;4980834;28;20034;-79
2022/05/12 03:24:20;;;;;;;1.13;0.75;;;;;;;;;;4983211;28;20058;-78
2022/05/12 03:26:47;;;;;;;1.45;0.77;;;;;;;;;;4983705;28;20050;-79
2022/05/12 03:29:12;;;;;;;0.47;0.30;;;;;;;;;;5000049;28;20034;-79
2022/05/12 03:31:38;;;;;;;1.25;0.88;;;;;;;;;;4967654;28;20522;-79
2022/05/12 03:34:04;;;;;;;1.42;0.77;;;;;;;;;;4967733;28;20049;-79
2022/05/12 03:36:35;;;;;;;0.80;0.55;;;;;;;;;;4984400;28;20077;-80
2022/05/12 03:39:00;;;;;;;2.42;0.95;;;;;;;;;;4984411;28;20390;-79
2022/05/12 03:41:25;;;;;;;1.55;0.95;;;;;;;;;;4982725;28;20096;-78
2022/05/12 03:46:35;;;;;;;1.15;0.50;;;;;;;;;;4981991;28;20065;-79
2022/05/12 03:49:00;;;;;;;1.23;0.77;;;;;;;;;;4967035;28;20461;-79
2022/05/12 03:51:26;;;;;;;1.25;0.60;;;;;;;;;;4977234;28;20038;-78
2022/05/12 03:53:51;;;;;;;1.27;0.75;;;;;;;;;;4983419;28;20486;-79
2022/05/12 03:56:17;;;;;;;0.28;0.20;;;;;;;;;;4966288;28;20034;-79
2022/05/12 03:58:42;;;;;;;1.20;0.95;;;;;;;;;;4966596;28;20112;-79
2022/05/12 04:01:07;;;;;;;0.20;0.20;;;;;;;;;;4966572;28;20038;-77
2022/05/12 04:03:33;;;;;;;0.85;0.60;;;;;;;;;;4969506;28;20748;-78
2022/05/12 04:06:00;;;;;;;0.70;0.47;;;;;;;;;;4986126;28;20437;-77
2022/05/12 04:08:26;;;;;;;;;;;;;;;;;;4986198;28;20041;-75
2022/05/12 04:10:51;;;;;;;1.40;0.60;;;;;;;;;;4986504;28;19917;-78
2022/05/12 04:13:16;;;;;;;0.75;0.57;;;;;;;;;;4985399;28;20041;-77
2022/05/12 04:15:42;;;;;;;0.90;0.57;;;;;;;;;;5003108;28;20038;-77
2022/05/12 04:18:08;;;;;;;1.83;1.23;;;;;;;;;;4969090;28;20584;-78
2022/05/12 04:20:34;;;;;;;1.48;0.60;;;;;;;;;;5003017;28;20030;-77
2022/05/12 04:23:00;;;;;;;0.77;0.43;;;;;;;;;;4979546;28;20061;-79
2022/05/12 04:25:26;;;;;;;0.43;0.30;;;;;;;;;;4986197;28;20029;-77
2022/05/12 04:27:52;;;;;;;1.35;0.85;;;;;;;;;;5003590;28;20073;-77
2022/05/12 04:30:19;;;;;;;1.38;0.50;;;;;;;;;;4985396;28;20041;-77
2022/05/12 04:32:44;;;;;;;1.73;1.33;;;;;;;;;;4985388;28;20564;-78
2022/05/12 04:35:15;;;;;;;0.35;0.30;;;;;;;;;;4985179;28;20030;-77
2022/05/12 04:37:41;;;;;;;0.57;0.40;;;;;;;;;;4998324;28;20041;-77
2022/05/12 04:40:25;;;;;;;0.73;0.47;;;;;;;;;;5001758;28;20242;-79
2022/05/12 04:42:53;;;;;;;1.02;0.60;;;;;;;;;;5001585;28;20117;-81
2022/05/12 04:45:19;;;;;;;0.38;0.22;;;;;;;;;;4985414;28;20552;-79
2022/05/12 04:47:45;;;;;;;1.05;0.60;;;;;;;;;;4984806;28;20103;-79
2022/05/12 04:50:14;;;;;;;2.17;0.90;;;;;;;;;;4972793;28;20425;-79
2022/05/12 04:52:39;;;;;;;0.57;0.50;;;;;;;;;;4986179;28;20044;-80
2022/05/12 04:55:05;;;;;;;0.40;0.30;;;;;;;;;;4982685;28;20045;-81
2022/05/12 04:57:38;;;;;;;0.80;0.40;;;;;;;;;;4985036;28;20038;-82
2022/05/12 05:00:06;;;;;;;0.65;0.40;;;;;;;;;;4964310;28;20478;-80
2022/05/12 05:02:31;;;;;;;;;;;;;;;;;;4962988;28;20034;-80
2022/05/12 05:04:56;;;;;;;0.20;0.20;;;;;;;;;;4982081;28;20004;-80
2022/05/12 05:07:22;;;;;;;0.85;0.50;;;;;;;;;;4971217;28;20593;-79
2022/05/12 05:09:49;;;;;;;1.52;0.60;;;;;;;;;;4971065;28;20126;-81
2022/05/12 05:12:15;;;;;;;0.35;0.32;;;;;;;;;;4982150;28;20085;-79
2022/05/12 05:14:40;;;;;;;0.38;0.30;;;;;;;;;;4966517;28;20038;-79
2022/05/12 05:17:05;;;;;;;1.67;0.70;;;;;;;;;;4965389;28;20062;-81
2022/05/12 05:19:32;;;;;;;1.17;0.63;;;;;;;;;;4980292;28;20038;-87
2022/05/12 05:21:57;;;;;;;1.10;0.70;;;;;;;;;;4981997;28;20115;-80
2022/05/12 05:24:23;;;;;;;0.85;0.52;;;;;;;;;;4982779;28;20111;-84
2022/05/12 05:26:48;;;;;;;1.13;0.60;;;;;;;;;;4982048;28;20553;-82
2022/05/12 05:29:14;;;;;;;0.75;0.40;;;;;;;;;;4967214;28;20034;-82
2022/05/12 05:31:39;;;;;;;0.25;0.22;;;;;;;;;;4980177;28;20537;-84
2022/05/12 05:34:05;;;;;;;0.35;0.30;;;;;;;;;;4981818;28;20042;-84
2022/05/12 05:36:30;;;;;;;0.55;0.35;;;;;;;;;;4964227;28;20057;-85
2022/05/12 05:38:56;;;;;;;1.33;0.30;;;;;;;;;;4982492;28;20036;-83
2022/05/12 05:41:22;;;;;;;0.22;0.17;;;;;;;;;;4997644;28;20035;-82
2022/05/12 05:43:48;;;;;;;0.70;0.47;;;;;;;;;;4967333;28;20030;-81
2022/05/12 05:46:13;;;;;;;0.13;0.13;;;;;;;;;;4969450;28;20029;-81
2022/05/12 05:48:38;;;;;;;0.10;0.10;;;;;;;;;;4969722;28;20043;-82
2022/05/12 05:53:47;;;;;;;0.20;0.17;;;;;;;;;;4985573;28;20550;-83
2022/05/12 05:56:15;;;;;;;0.10;0.10;;;;;;;;;;4970260;28;20125;-82
2022/05/12 05:58:44;;;;;;;2.90;0.93;;;;;;;;;;4986012;28;20050;-81
2022/05/12 06:01:10;;;;;;;0.10;0.10;;;;;;;;;;4985078;28;20898;-80
2022/05/12 06:03:36;;;;;;;0.50;0.35;;;;;;;;;;4971262;28;20529;-80
2022/05/12 06:06:01;;;;;;;1.45;0.35;;;;;;;;;;4971993;28;20030;-81
2022/05/12 06:08:27;;;;;;;0.65;0.40;;;;;;;;;;4979192;28;20505;-79
2022/05/12 06:10:52;;;;;;;0.20;0.10;;;;;;;;;;4986281;28;20044;-80
2022/05/12 06:13:18;;;;;;;0.30;0.22;;;;;;;;;;4988549;28;20665;-80
2022/05/12 06:15:43;;;;;;;2.33;0.70;;;;;;;;;;4978270;28;20505;-80
2022/05/12 06:18:13;;;;;;;0.63;0.30;;;;;;;;;;4983030;28;20036;-81
2022/05/12 06:20:38;;;;;;;0.55;0.28;;;;;;;;;;4971961;28;20042;-79
2022/05/12 06:23:03;;;;;;;0.10;0.10;;;;;;;;;;5005060;28;20038;-80
2022/05/12 06:25:29;;;;;;;5.57;0.47;;;;;;;;;;4971795;28;20038;-81
2022/05/12 06:27:54;;;;;;;0.30;0.22;;;;;;;;;;4985562;28;20049;-80
2022/05/12 06:30:20;;;;;;;0.17;0.17;;;;;;;;;;4964896;28;20034;-80
2022/05/12 06:32:46;;;;;;;0.10;0.10;;;;;;;;;;4984976;28;20038;-80
2022/05/12 06:35:16;;;;;;;0.10;0.10;;;;;;;;;;4972086;28;20034;-79
2022/05/12 06:37:41;;;;;;;1.45;0.45;;;;;;;;;;5004967;28;20049;-81
2022/05/12 06:40:07;;;;;;;6.32;1.55;;;;;;;;;;4988553;28;20038;-80
2022/05/12 06:42:35;;;;;;;0.10;0.10;;;;;;;;;;4981265;28;20026;-80
2022/05/12 06:45:03;;;;;;;4.15;0.75;;;;;;;;;;4965224;28;20371;-80
2022/05/12 06:47:30;;;;;;;0.10;0.10;;;;;;;;;;4984859;28;20034;-79
2022/05/12 06:49:55;;;;;;;0.00;0.00;;;;;;;;;;4973068;28;20097;-80
2022/05/12 06:52:21;;;;;;;0.00;0.00;;;;;;;;;;4974803;28;20045;-80
2022/05/12 06:54:46;;;;;;;0.10;0.10;;;;;;;;;;4972876;28;20077;-80
2022/05/12 06:57:12;;;;;;;0.10;0.10;;;;;;;;;;4971157;28;20497;-79
2022/05/12 06:59:39;;;;;;;0.10;0.10;;;;;;;;;;4988178;28;20898;-80
2022/05/12 07:02:06;;;;;;;0.10;0.10;;;;;;;;;;5002863;28;20030;-80
2022/05/12 07:04:31;;;;;;;0.40;0.20;;;;;;;;;;4971682;28;20038;-79
2022/05/12 07:06:57;;;;;;;0.03;0.03;;;;;;;;;;4986373;28;20033;-78
2022/05/12 07:09:22;;;;;;;0.10;0.10;;;;;;;;;;4972204;28;20037;-81
2022/05/12 07:11:48;;;;;;;1.13;0.50;;;;;;;;;;4985663;28;20041;-80
2022/05/12 07:14:14;;;;;;;0.32;0.20;;;;;;;;;;5004456;28;20112;-80
2022/05/12 07:16:42;;;;;;;0.20;0.20;;;;;;;;;;4980005;28;20501;-80
2022/05/12 07:19:07;;;;;;;1.25;0.82;;;;;;;;;;4982311;28;20517;-80
2022/05/12 07:27:00;;;;;;;0.40;0.30;;;;;;;;;;4988355;28;20044;-80
2022/05/12 07:29:27;;;;;;;0.00;0.00;;;;;;;;;;4987851;28;20076;-81
2022/05/12 07:31:53;;;;;;;4.88;0.30;;;;;;;;;;4970844;28;20064;-81
2022/05/12 07:34:19;;;;;;;0.08;0.08;;;;;;;;;;4987333;28;20454;-81
2022/05/12 07:36:50;;;;;;;0.00;0.00;;;;;;;;;;4998873;28;20044;-82
2022/05/12 07:39:17;;;;;;;0.20;0.20;;;;;;;;;;4971397;28;20037;-80
2022/05/12 07:41:43;;;;;;;0.00;0.00;;;;;;;;;;4980033;28;20136;-82
2022/05/12 07:44:09;;;;;;;0.10;0.10;;;;;;;;;;4965212;28;20146;-79
2022/05/12 07:46:35;;;;;;;0.10;0.10;;;;;;;;;;4983636;28;20040;-78
2022/05/12 07:49:00;;;;;;;0.00;0.00;;;;;;;;;;4986496;28;20029;-80
2022/05/12 07:51:26;;;;;;;0.10;0.10;;;;;;;;;;4970723;28;20129;-79
2022/05/12 07:53:52;;;;;;;0.00;0.00;;;;;;;;;;4984596;28;20041;-80
2022/05/12 07:56:20;;;;;;;4.72;0.55;;;;;;;;;;5001921;28;20037;-82
2022/05/12 07:58:46;;;;;;;0.73;0.40;;;;;;;;;;4978537;28;20073;-80
2022/05/12 08:01:12;;;;;;;0.00;0.00;;;;;;;;;;4974321;28;20033;-81
2022/05/12 08:03:39;;;;;;;0.00;0.00;;;;;;;;;;4985810;28;20050;-82
2022/05/12 08:06:04;;;;;;;0.10;0.10;;;;;;;;;;4970046;28;20026;-79
2022/05/12 08:08:30;;;;;;;2.13;0.43;;;;;;;;;;4975573;28;20045;-80
2022/05/12 08:10:55;;;;;;;0.00;0.00;;;;;;;;;;4970197;28;20109;-82
2022/05/12 08:13:21;;;;;;;0.40;0.28;;;;;;;;;;4984488;28;20036;-82
2022/05/12 08:15:48;;;;;;;0.10;0.10;;;;;;;;;;4985104;28;20046;-80
2022/05/12 08:18:16;;;;;;;0.15;0.10;;;;;;;;;;4985920;28;20896;-79
2022/05/12 08:20:44;;;;;;;2.08;0.25;;;;;;;;;;4984398;28;20037;-80
2022/05/12 08:23:10;;;;;;;0.10;0.10;;;;;;;;;;4987415;28;20042;-81
2022/05/12 08:25:35;;;;;;;1.70;0.65;;;;;;;;;;4985166;28;20034;-80
2022/05/12 08:28:00;;;;;;;0.10;0.10;;;;;;;;;;4986240;28;20041;-80
2022/05/12 08:30:26;;;;;;;0.52;0.25;;;;;;;;;;4986810;28;20490;-80
2022/05/12 08:32:51;;;;;;;1.65;0.30;;;;;;;;;;4982442;28;20037;-80
2022/05/12 08:35:17;;;;;;;0.00;0.00;;;;;;;;;;4975039;28;20038;-80
2022/05/12 08:37:42;;;;;;;0.05;0.05;;;;;;;;;;4983323;28;20068;-80
2022/05/12 08:40:14;;;;;;;0.28;0.13;;;;;;;;;;4987476;28;20508;-80
2022/05/12 08:42:46;;;;;;;1.02;0.55;;;;;;;;;;4970579;28;20096;-81
2022/05/12 08:45:15;;;;;;;0.00;0.00;;;;;;;;;;4970333;28;20034;-80
2022/05/12 08:47:44;;;;;;;0.38;0.28;;;;;;;;;;4985249;28;20038;-81
2022/05/12 08:50:12;;;;;;;0.10;0.10;;;;;;;;;;4977172;28;20705;-81
2022/05/12 08:52:53;;;;;;;0.10;0.10;;;;;;;;;;4986807;28;20493;-80
2022/05/12 08:55:27;;;;;;;0.08;0.08;;;;;;;;;;4985959;28;20061;-79
2022/05/12 08:58:07;;;;;;;0.10;0.10;;;;;;;;;;4985806;28;20520;-80
2022/05/12 09:00:58;;;;;;;0.10;0.10;;;;;;;;;;4984597;28;20037;-79
2022/05/12 09:03:48;;;;;;;0.43;0.20;;;;;;;;;;4968150;28;20034;-79
2022/05/12 09:06:18;;;;;;;0.00;0.00;;;;;;;;;;5001893;28;20038;-81
2022/05/12 09:09:03;;;;;;;0.20;0.20;;;;;;;;;;4984967;28;20052;-80
2022/05/12 09:11:38;;;;;;;0.00;0.00;;;;;;;;;;4971208;28;20034;-81
2022/05/12 09:14:08;;;;;;;0.50;0.10;;;;;;;;;;4962734;28;20038;-82
2022/05/12 09:16:33;;;;;;;0.08;0.08;;;;;;;;;;4984736;28;20514;-80
2022/05/12 09:18:59;;;;;;;4.03;0.35;;;;;;;;;;4974644;28;20072;-80
2022/05/12 09:21:27;;;;;;;0.05;0.00;;;;;;;;;;4987353;28;20053;-79
2022/05/12 09:23:54;;;;;;;0.00;0.00;;;;;;;;;;5006590;28;20101;-80
2022/05/12 09:26:37;;;;;;;0.00;0.00;;;;;;;;;;4987766;28;20121;-82
2022/05/12 09:29:24;;;;;;;0.45;0.10;;;;;;;;;;5000272;28;20100;-81
2022/05/12 09:32:04;;;;;;;0.00;0.00;;;;;;;;;;4965390;28;20151;-79
2022/05/12 09:34:32;;;;;;;0.00;0.00;;;;;;;;;;4981451;28;20041;-80
2022/05/12 09:37:20;;;;;;;0.10;0.03;;;;;;;;;;4970817;28;20051;-79
2022/05/12 09:39:49;;;;;;;0.68;0.30;;;;;;;;;;4990353;28;20038;-79
2022/05/12 09:42:29;;;;;;;0.00;0.00;;;;;;;;;;4980213;28;20568;-79
2022/05/12 09:45:07;;;;;;;0.00;0.00;;;;;;;;;;4989715;28;20104;-82
2022/05/12 09:47:33;;;;;;;0.00;0.00;;;;;;;;;;4985730;28;20041;-81
2022/05/12 09:50:20;;;;;;;0.00;0.00;;;;;;;;;;4968298;28;20504;-82
2022/05/12 09:53:09;;;;;;;0.10;0.00;;;;;;;;;;5005893;28;20117;-82
2022/05/12 09:55:41;;;;;;;0.52;0.20;;;;;;;;;;4988575;28;20072;-81
2022/05/12 09:58:28;;;;;;;0.08;0.00;;;;;;;;;;4965483;28;20134;-83
2022/05/12 10:01:12;;;;;;;0.47;0.20;;;;;;;;;;4981293;28;20101;-81
2022/05/12 10:09:26;;;;;;;0.10;0.08;;;;;;;;;;4991270;28;20400;-83
2022/05/12 10:12:24;;;;;;;0.70;0.28;;;;;;;;;;5005099;28;20042;-80
2022/05/12 10:14:55;;;;;;;0.98;0.30;;;;;;;;;;4987910;28;20034;-81
2022/05/12 10:17:30;;;;;;;0.38;0.17;;;;;;;;;;5004484;28;20037;-79
2022/05/12 10:19:57;;;;;;;0.60;0.10;;;;;;;;;;4988955;28;20525;-82
2022/05/12 10:22:33;;;;;;;0.20;0.03;;;;;;;;;;4971753;28;20069;-79
2022/05/12 10:25:47;;;;;;;0.00;0.00;;;;;;;;;;4978538;28;20378;-80
2022/05/12 10:28:23;;;;;;;0.10;0.05;;;;;;;;;;4987356;28;20038;-81
2022/05/12 10:31:02;;;;;;;0.03;0.00;;;;;;;;;;4973005;28;20041;-81
2022/05/12 10:33:44;;;;;;;0.00;0.00;;;;;;;;;;5004599;28;20441;-79
2022/05/12 10:36:27;;;;;;;0.00;0.00;;;;;;;;;;4989425;28;20892;-82
2022/05/12 10:39:05;;;;;;;0.15;0.00;;;;;;;;;;4980622;28;20046;-81
2022/05/12 10:41:35;;;;;;;0.75;0.28;;;;;;;;;;5004978;28;20096;-82
2022/05/12 10:44:42;;;;;;;0.55;0.20;;;;;;;;;;4971650;28;20045;-83
2022/05/12 10:47:26;;;;;;;0.00;0.00;;;;;;;;;;4886289;29;20040;-82
2022/05/12 10:49:51;;;;;;;0.00;0.00;;;;;;;;;;4925201;29;20464;-81
2022/05/12 10:52:46;;;;;;;0.30;0.10;;;;;;;;;;4924444;29;20043;-81
2022/05/12 10:55:36;;;;;;;0.93;0.10;;;;;;;;;;4909134;29;20044;-81
2022/05/12 10:58:19;;;;;;;0.00;0.00;;;;;;;;;;4909753;29;20062;-82
2022/05/12 11:01:16;;;;;;;0.20;0.10;;;;;;;;;;4909402;29;20054;-80
2022/05/12 11:04:05;;;;;;;0.03;0.00;;;;;;;;;;4924146;29;20531;-82
2022/05/12 11:06:38;;;;;;;0.10;0.00;;;;;;;;;;4907894;29;20114;-79
2022/05/12 11:09:25;;;;;;;0.00;0.00;;;;;;;;;;4907920;29;20044;-82
2022/05/12 11:11:53;;;;;;;0.38;0.03;;;;;;;;;;4897577;29;20531;-81
2022/05/12 11:14:36;;;;;;;0.43;0.10;;;;;;;;;;4924752;29;20122;-83
2022/05/12 11:17:24;;;;;;;1.65;0.20;;;;;;;;;;4933769;28;20180;-82
2022/05/12 11:20:00;;;;;;;0.40;0.10;;;;;;;;;;4979725;28;20557;-81
2022/05/12 11:22:38;;;;;;;0.00;0.00;;;;;;;;;;4970109;28;20065;-80
2022/05/12 11:25:30;;;;;;;2.08;0.32;;;;;;;;;;4986829;28;20053;-81
2022/05/12 11:31:12;;;;;;;0.30;0.10;;;;;;;;;;5003932;28;20040;-80
2022/05/12 11:33:39;;;;;;;0.52;0.05;;;;;;;;;;4986651;28;20049;-81
2022/05/12 11:36:04;;;;;;;;;;;;;;;;;;4970707;28;20061;-82
2022/05/12 11:38:45;;;;;;;0.00;0.00;;;;;;;;;;4987441;28;19917;-83
2022/05/12 11:41:19;;;;;;;0.05;0.03;;;;;;;;;;4987168;28;20038;-80
2022/05/12 11:46:49;;;;;;;0.00;0.00;;;;;;;;;;4989476;28;20068;-81
2022/05/12 11:49:24;;;;;;;;;;;;;;;;;;5003952;28;20124;-81
2022/05/12 11:51:56;;;;;;;0.17;0.00;;;;;;;;;;4970154;28;19917;-82
2022/05/12 11:54:31;;;;;;;0.00;0.00;;;;;;;;;;4987937;28;20121;-80
2022/05/12 11:57:01;;;;;;;0.00;0.00;;;;;;;;;;4985316;28;20033;-80
2022/05/12 11:59:28;;;;;;;0.32;0.10;;;;;;;;;;4987163;28;20030;-80
2022/05/12 12:01:59;;;;;;;0.13;0.10;;;;;;;;;;5003948;28;20481;-81
2022/05/12 12:04:37;;;;;;;0.10;0.00;;;;;;;;;;4999074;28;20056;-81
2022/05/12 12:07:04;;;;;;;2.65;0.20;;;;;;;;;;5003116;28;20401;-80
2022/05/12 12:09:35;;;;;;;0.20;0.10;;;;;;;;;;4964336;28;20065;-81
2022/05/12 12:12:03;;;;;;;0.00;0.00;;;;;;;;;;5002591;28;20034;-81
2022/05/12 12:14:43;;;;;;;;;;;;;;;;;;4965260;28;20041;-80
2022/05/12 12:17:28;;;;;;;0.20;0.10;;;;;;;;;;4985759;28;19917;-81
2022/05/12 12:19:56;;;;;;;0.20;0.20;;;;;;;;;;4982730;28;20503;-81
2022/05/12 12:22:27;;;;;;;0.10;0.00;;;;;;;;;;4985122;28;20034;-80
2022/05/12 12:25:04;;;;;;;0.05;0.05;;;;;;;;;;5002578;28;20037;-81
2022/05/12 12:27:51;;;;;;;0.10;0.10;;;;;;;;;;4984932;28;20064;-81
2022/05/12 12:30:34;;;;;;;2.05;0.57;;;;;;;;;;4996415;28;20041;-81
2022/05/12 12:33:15;;;;;;;0.00;0.00;;;;;;;;;;4985351;28;20029;-80
2022/05/12 12:35:54;;;;;;;0.10;0.00;;;;;;;;;;4985233;28;20132;-81
2022/05/12 12:38:44;;;;;;;0.05;0.00;;;;;;;;;;4986120;28;20030;-81
2022/05/12 12:41:17;;;;;;;0.00;0.00;;;;;;;;;;5002540;28;20536;-81
2022/05/12 12:43:49;;;;;;;0.05;0.03;;;;;;;;;;4977693;28;20052;-81
2022/05/12 12:46:36;;;;;;;0.28;0.08;;;;;;;;;;4985923;28;20092;-81
2022/05/12 12:49:28;;;;;;;0.08;0.08;;;;;;;;;;4979274;28;20030;-82
2022/05/12 12:51:57;;;;;;;0.00;0.00;;;;;;;;;;4985986;28;20511;-80
2022/05/12 12:57:10;;;;;;;0.15;0.10;;;;;;;;;;5008909;28;20037;-81
2022/05/12 12:59:41;;;;;;;0.25;0.20;;;;;;;;;;4975886;28;20514;-81
2022/05/12 13:02:06;;;;;;;0.28;0.13;;;;;;;;;;4970637;28;20045;-81
2022/05/12 13:04:34;;;;;;;0.20;0.13;;;;;;;;;;4981475;28;20038;-82
2022/05/12 13:07:02;;;;;;;0.73;0.50;;;;;;;;;;5004444;28;20042;-81
2022/05/12 13:09:41;;;;;;;2.13;0.28;;;;;;;;;;4971048;28;20033;-81
2022/05/12 13:12:08;;;;;;;0.10;0.00;;;;;;;;;;4991159;28;20034;-83
2022/05/12 13:14:36;;;;;;;0.57;0.30;;;;;;;;;;5008616;28;20537;-81
2022/05/12 13:17:01;;;;;;;0.00;0.00;;;;;;;;;;4991998;28;20038;-82
2022/05/12 13:19:38;;;;;;;0.35;0.10;;;;;;;;;;4969445;28;20477;-82
2022/05/12 13:22:04;;;;;;;0.00;0.00;;;;;;;;;;4990949;28;20072;-82
2022/05/12 13:24:31;;;;;;;0.17;0.10;;;;;;;;;;4991637;28;20053;-81
2022/05/12 13:26:59;;;;;;;0.00;0.00;;;;;;;;;;4991979;28;20029;-83
2022/05/12 13:29:36;;;;;;;0.00;0.00;;;;;;;;;;4968844;28;20048;-81
2022/05/12 13:32:11;;;;;;;0.20;0.10;;;;;;;;;;5008840;28;20041;-81
2022/05/12 13:34:36;;;;;;;0.22;0.20;;;;;;;;;;5009807;28;20042;-82
2022/05/12 13:37:15;;;;;;;1.45;0.28;;;;;;;;;;4980525;28;20693;-82
2022/05/12 13:39:50;;;;;;;0.00;0.00;;;;;;;;;;4992957;28;20148;-83
2022/05/12 13:42:43;;;;;;;0.55;0.20;;;;;;;;;;4990250;28;20068;-82
2022/05/12 13:45:28;;;;;;;0.80;0.22;;;;;;;;;;4965623;28;20037;-82
2022/05/12 13:47:56;;;;;;;0.00;0.00;;;;;;;;;;4976461;28;20046;-81
2022/05/12 13:50:34;;;;;;;0.08;0.00;;;;;;;;;;4991559;28;20034;-82
2022/05/12 13:53:00;;;;;;;0.45;0.20;;;;;;;;;;4986117;28;20112;-84
2022/05/12 13:55:33;;;;;;;0.17;0.08;;;;;;;;;;4977582;28;20140;-84
2022/05/12 13:58:01;;;;;;;0.10;0.00;;;;;;;;;;4991179;28;20061;-83
2022/05/12 14:00:36;;;;;;;0.45;0.20;;;;;;;;;;5008355;28;20041;-83
2022/05/12 14:03:17;;;;;;;0.25;0.10;;;;;;;;;;4985534;28;20552;-81
2022/05/12 14:05:44;;;;;;;0.00;0.00;;;;;;;;;;4989996;28;20524;-81
2022/05/12 14:08:09;;;;;;;0.75;0.10;;;;;;;;;;4964523;28;20045;-83
2022/05/12 14:10:44;;;;;;;0.00;0.00;;;;;;;;;;5006919;28;20041;-84
2022/05/12 14:21:43;;;;;;;0.10;0.10;;;;;;;;;;5000967;28;20096;-83
2022/05/12 14:24:08;;;;;;;0.20;0.10;;;;;;;;;;4988948;28;20071;-81
2022/05/12 14:26:33;;;;;;;0.10;0.00;;;;;;;;;;4988146;28;20524;-84
2022/05/12 14:28:59;;;;;;;0.47;0.30;;;;;;;;;;4981882;28;20034;-82
2022/05/12 14:31:24;;;;;;;1.38;0.63;;;;;;;;;;4988457;28;20046;-85
2022/05/12 14:33:50;;;;;;;0.20;0.10;;;;;;;;;;4982708;28;20223;-83
2022/05/12 14:36:15;;;;;;;0.15;0.10;;;;;;;;;;4971769;28;20038;-82
2022/05/12 14:38:40;;;;;;;0.00;0.00;;;;;;;;;;4976785;28;20100;-83
2022/05/12 14:41:06;;;;;;;0.95;0.20;;;;;;;;;;4972088;28;20042;-84
2022/05/12 14:43:31;;;;;;;0.10;0.10;;;;;;;;;;4972375;28;20040;-85
2022/05/12 14:45:57;;;;;;;0.10;0.00;;;;;;;;;;4980016;28;20038;-83
2022/05/12 14:48:26;;;;;;;0.00;0.00;;;;;;;;;;4988032;28;20041;-84
2022/05/12 14:50:52;;;;;;;1.10;0.45;;;;;;;;;;4997581;28;20048;-82
2022/05/12 14:53:17;;;;;;;0.00;0.00;;;;;;;;;;4964950;28;20057;-83
2022/05/12 14:55:43;;;;;;;0.00;0.00;;;;;;;;;;4976712;28;20065;-84
2022/05/12 14:58:10;;;;;;;0.10;0.00;;;;;;;;;;4964703;28;20098;-85
2022/05/12 15:00:36;;;;;;;0.65;0.38;;;;;;;;;;4971583;28;20040;-86
2022/05/12 15:03:01;;;;;;;0.47;0.15;;;;;;;;;;4978935;28;20038;-85
2022/05/12 15:05:29;;;;;;;1.65;0.50;;;;;;;;;;4975676;28;20523;-85
2022/05/12 15:07:54;;;;;;;;;;;;;;;;;;4987863;28;20161;-85
2022/05/12 15:10:20;;;;;;;0.10;0.10;;;;;;;;;;4987101;28;20007;-84
2022/05/12 15:12:45;;;;;;;0.57;0.30;;;;;;;;;;4966236;28;20037;-85
2022/05/12 15:15:12;;;;;;;0.40;0.20;;;;;;;;;;4972687;28;20398;-86
2022/05/12 15:17:41;;;;;;;0.30;0.10;;;;;;;;;;4986884;28;20080;-84
2022/05/12 15:20:08;;;;;;;0.25;0.10;;;;;;;;;;4988488;28;20150;-82
2022/05/12 15:22:34;;;;;;;0.75;0.32;;;;;;;;;;4986203;28;20042;-84
2022/05/12 15:24:59;;;;;;;0.30;0.10;;;;;;;;;;4972983;28;20041;-84
2022/05/12 15:27:29;;;;;;;0.08;0.08;;;;;;;;;;4975304;28;20497;-84
2022/05/12 15:29:57;;;;;;;0.30;0.13;;;;;;;;;;4972362;28;20042;-85
2022/05/12 15:32:22;;;;;;;4.78;0.32;;;;;;;;;;4983286;28;20041;-85
2022/05/12 15:34:47;;;;;;;0.63;0.32;;;;;;;;;;4986846;28;20120;-84